sensor_id;sensor_type;location;lat;lon;timestamp;P1;durP1;ratioP1;P2;durP2;ratioP2
10442;SDS011;5269;51.146;16.986;2023-02-28T00:02:44;25.90;;;13.27;;
10442;SDS011;5269;51.146;16.986;2023-02-28T00:08:35;21.90;;;12.03;;
10442;SDS011;5269;51.146;16.986;2023-02-28T00:14:24;26.30;;;13.10;;
10442;SDS011;5269;51.146;16.986;2023-02-28T00:16:51;27.40;;;13.33;;
10442;SDS011;5269;51.146;16.986;2023-02-28T00:22:40;22.53;;;11.67;;
10442;SDS011;5269;51.146;16.986;2023-02-28T00:28:32;23.93;;;12.53;;
10442;SDS011;5269;51.146;16.986;2023-02-28T00:34:20;26.77;;;13.53;;
10442;SDS011;5269;51.146;16.986;2023-02-28T00:40:10;25.67;;;13.80;;
10442;SDS011;5269;51.146;16.986;2023-02-28T00:42:37;25.30;;;13.83;;
10442;SDS011;5269;51.146;16.986;2023-02-28T00:45:07;30.10;;;15.33;;
10442;SDS011;5269;51.146;16.986;2023-02-28T00:47:34;30.77;;;16.30;;
10442;SDS011;5269;51.146;16.986;2023-02-28T00:50:01;32.70;;;16.77;;
10442;SDS011;5269;51.146;16.986;2023-02-28T00:52:28;32.43;;;17.00;;
10442;SDS011;5269;51.146;16.986;2023-02-28T00:54:55;33.23;;;17.27;;
10442;SDS011;5269;51.146;16.986;2023-02-28T00:57:22;30.37;;;16.23;;
10442;SDS011;5269;51.146;16.986;2023-02-28T00:59:49;31.63;;;16.80;;
10442;SDS011;5269;51.146;16.986;2023-02-28T01:02:17;31.50;;;17.30;;
10442;SDS011;5269;51.146;16.986;2023-02-28T01:04:45;31.03;;;16.90;;
10442;SDS011;5269;51.146;16.986;2023-02-28T01:07:12;30.37;;;17.17;;
10442;SDS011;5269;51.146;16.986;2023-02-28T01:09:39;33.53;;;17.27;;
10442;SDS011;5269;51.146;16.986;2023-02-28T01:12:07;32.10;;;17.77;;
10442;SDS011;5269;51.146;16.986;2023-02-28T01:14:34;30.63;;;17.17;;
10442;SDS011;5269;51.146;16.986;2023-02-28T01:17:01;30.13;;;17.53;;
10442;SDS011;5269;51.146;16.986;2023-02-28T01:19:29;31.03;;;17.50;;
10442;SDS011;5269;51.146;16.986;2023-02-28T01:21:56;33.23;;;18.10;;
10442;SDS011;5269;51.146;16.986;2023-02-28T01:24:26;31.10;;;17.50;;
10442;SDS011;5269;51.146;16.986;2023-02-28T01:26:53;27.77;;;16.90;;
10442;SDS011;5269;51.146;16.986;2023-02-28T01:29:19;29.10;;;17.13;;
10442;SDS011;5269;51.146;16.986;2023-02-28T01:31:46;31.40;;;17.57;;
10442;SDS011;5269;51.146;16.986;2023-02-28T01:34:13;29.67;;;17.40;;
10442;SDS011;5269;51.146;16.986;2023-02-28T01:36:41;29.37;;;16.17;;
10442;SDS011;5269;51.146;16.986;2023-02-28T01:39:08;30.20;;;15.77;;
10442;SDS011;5269;51.146;16.986;2023-02-28T01:41:35;29.17;;;16.07;;
10442;SDS011;5269;51.146;16.986;2023-02-28T01:44:04;29.97;;;15.97;;
10442;SDS011;5269;51.146;16.986;2023-02-28T01:46:33;29.57;;;15.37;;
10442;SDS011;5269;51.146;16.986;2023-02-28T01:49:05;27.60;;;15.80;;
10442;SDS011;5269;51.146;16.986;2023-02-28T01:51:37;28.67;;;15.93;;
10442;SDS011;5269;51.146;16.986;2023-02-28T01:54:12;29.10;;;15.77;;
10442;SDS011;5269;51.146;16.986;2023-02-28T01:56:43;31.27;;;17.07;;
10442;SDS011;5269;51.146;16.986;2023-02-28T01:59:14;28.67;;;15.77;;
10442;SDS011;5269;51.146;16.986;2023-02-28T02:01:48;30.10;;;15.83;;
10442;SDS011;5269;51.146;16.986;2023-02-28T02:04:15;28.27;;;15.60;;
10442;SDS011;5269;51.146;16.986;2023-02-28T02:06:43;29.37;;;15.33;;
10442;SDS011;5269;51.146;16.986;2023-02-28T02:09:13;30.50;;;14.90;;
10442;SDS011;5269;51.146;16.986;2023-02-28T02:11:41;28.20;;;15.63;;
10442;SDS011;5269;51.146;16.986;2023-02-28T02:14:20;26.43;;;14.80;;
10442;SDS011;5269;51.146;16.986;2023-02-28T02:17:10;28.13;;;15.33;;
10442;SDS011;5269;51.146;16.986;2023-02-28T02:23:07;26.07;;;15.03;;
10442;SDS011;5269;51.146;16.986;2023-02-28T02:25:58;29.50;;;15.23;;
10442;SDS011;5269;51.146;16.986;2023-02-28T02:28:43;28.97;;;15.47;;
10442;SDS011;5269;51.146;16.986;2023-02-28T02:31:33;26.43;;;14.40;;
10442;SDS011;5269;51.146;16.986;2023-02-28T02:34:30;27.80;;;15.13;;
10442;SDS011;5269;51.146;16.986;2023-02-28T02:37:09;26.00;;;14.93;;
10442;SDS011;5269;51.146;16.986;2023-02-28T02:39:44;26.97;;;15.50;;
10442;SDS011;5269;51.146;16.986;2023-02-28T02:42:18;26.77;;;15.27;;
10442;SDS011;5269;51.146;16.986;2023-02-28T02:44:50;25.53;;;14.90;;
10442;SDS011;5269;51.146;16.986;2023-02-28T02:47:24;31.73;;;16.77;;
10442;SDS011;5269;51.146;16.986;2023-02-28T02:49:56;29.00;;;16.83;;
10442;SDS011;5269;51.146;16.986;2023-02-28T02:52:28;31.07;;;16.87;;
10442;SDS011;5269;51.146;16.986;2023-02-28T02:54:58;33.07;;;18.37;;
10442;SDS011;5269;51.146;16.986;2023-02-28T02:57:30;34.60;;;18.17;;
10442;SDS011;5269;51.146;16.986;2023-02-28T03:00:02;33.90;;;18.83;;
10442;SDS011;5269;51.146;16.986;2023-02-28T03:02:33;32.07;;;18.30;;
10442;SDS011;5269;51.146;16.986;2023-02-28T03:05:04;33.57;;;18.57;;
10442;SDS011;5269;51.146;16.986;2023-02-28T03:07:38;27.57;;;17.10;;
10442;SDS011;5269;51.146;16.986;2023-02-28T03:12:57;32.67;;;17.90;;
10442;SDS011;5269;51.146;16.986;2023-02-28T03:15:35;30.87;;;17.80;;
10442;SDS011;5269;51.146;16.986;2023-02-28T03:18:08;29.60;;;17.70;;
10442;SDS011;5269;51.146;16.986;2023-02-28T03:20:42;30.23;;;18.67;;
10442;SDS011;5269;51.146;16.986;2023-02-28T03:23:16;32.63;;;19.47;;
10442;SDS011;5269;51.146;16.986;2023-02-28T03:25:52;36.07;;;18.83;;
10442;SDS011;5269;51.146;16.986;2023-02-28T03:28:24;35.57;;;18.93;;
10442;SDS011;5269;51.146;16.986;2023-02-28T03:30:59;32.63;;;19.53;;
10442;SDS011;5269;51.146;16.986;2023-02-28T03:33:30;31.07;;;18.23;;
10442;SDS011;5269;51.146;16.986;2023-02-28T03:36:04;31.77;;;18.23;;
10442;SDS011;5269;51.146;16.986;2023-02-28T03:38:34;35.67;;;18.93;;
10442;SDS011;5269;51.146;16.986;2023-02-28T03:41:05;30.37;;;17.57;;
10442;SDS011;5269;51.146;16.986;2023-02-28T03:43:45;30.93;;;17.20;;
10442;SDS011;5269;51.146;16.986;2023-02-28T03:46:18;30.43;;;17.20;;
10442;SDS011;5269;51.146;16.986;2023-02-28T03:48:49;29.23;;;16.40;;
10442;SDS011;5269;51.146;16.986;2023-02-28T03:51:21;30.43;;;16.60;;
10442;SDS011;5269;51.146;16.986;2023-02-28T03:53:50;27.00;;;16.27;;
10442;SDS011;5269;51.146;16.986;2023-02-28T03:56:21;30.30;;;16.63;;
10442;SDS011;5269;51.146;16.986;2023-02-28T03:58:51;29.77;;;17.83;;
10442;SDS011;5269;51.146;16.986;2023-02-28T04:01:23;32.30;;;17.30;;
10442;SDS011;5269;51.146;16.986;2023-02-28T04:03:53;30.87;;;16.40;;
10442;SDS011;5269;51.146;16.986;2023-02-28T04:06:22;30.23;;;17.50;;
10442;SDS011;5269;51.146;16.986;2023-02-28T04:08:49;33.40;;;18.47;;
10442;SDS011;5269;51.146;16.986;2023-02-28T04:11:22;28.37;;;16.80;;
10442;SDS011;5269;51.146;16.986;2023-02-28T04:13:53;32.57;;;17.90;;
10442;SDS011;5269;51.146;16.986;2023-02-28T04:16:20;33.43;;;19.20;;
10442;SDS011;5269;51.146;16.986;2023-02-28T04:18:47;29.93;;;17.53;;
10442;SDS011;5269;51.146;16.986;2023-02-28T04:21:14;27.63;;;16.57;;
10442;SDS011;5269;51.146;16.986;2023-02-28T04:23:46;30.67;;;16.63;;
10442;SDS011;5269;51.146;16.986;2023-02-28T04:26:13;26.17;;;15.83;;
10442;SDS011;5269;51.146;16.986;2023-02-28T04:28:40;26.60;;;15.90;;
10442;SDS011;5269;51.146;16.986;2023-02-28T04:31:07;24.13;;;14.23;;
10442;SDS011;5269;51.146;16.986;2023-02-28T04:33:35;25.37;;;15.47;;
10442;SDS011;5269;51.146;16.986;2023-02-28T04:36:03;24.57;;;14.53;;
10442;SDS011;5269;51.146;16.986;2023-02-28T04:38:33;29.10;;;16.23;;
10442;SDS011;5269;51.146;16.986;2023-02-28T04:41:03;28.83;;;16.20;;
10442;SDS011;5269;51.146;16.986;2023-02-28T04:43:31;28.50;;;16.03;;
10442;SDS011;5269;51.146;16.986;2023-02-28T04:46:00;29.20;;;15.93;;
10442;SDS011;5269;51.146;16.986;2023-02-28T04:48:29;29.07;;;16.10;;
10442;SDS011;5269;51.146;16.986;2023-02-28T04:50:59;28.70;;;15.53;;
10442;SDS011;5269;51.146;16.986;2023-02-28T04:53:27;24.73;;;15.10;;
10442;SDS011;5269;51.146;16.986;2023-02-28T04:55:54;26.70;;;14.70;;
10442;SDS011;5269;51.146;16.986;2023-02-28T04:58:22;29.37;;;16.17;;
10442;SDS011;5269;51.146;16.986;2023-02-28T05:00:49;25.07;;;15.20;;
10442;SDS011;5269;51.146;16.986;2023-02-28T05:03:16;26.93;;;15.43;;
10442;SDS011;5269;51.146;16.986;2023-02-28T05:05:43;26.10;;;15.20;;
10442;SDS011;5269;51.146;16.986;2023-02-28T05:08:10;25.67;;;14.63;;
10442;SDS011;5269;51.146;16.986;2023-02-28T05:10:37;30.00;;;16.77;;
10442;SDS011;5269;51.146;16.986;2023-02-28T05:13:03;23.80;;;15.30;;
10442;SDS011;5269;51.146;16.986;2023-02-28T05:15:32;26.63;;;15.73;;
10442;SDS011;5269;51.146;16.986;2023-02-28T05:17:58;23.23;;;14.70;;
10442;SDS011;5269;51.146;16.986;2023-02-28T05:20:25;23.40;;;14.60;;
10442;SDS011;5269;51.146;16.986;2023-02-28T05:22:52;22.33;;;13.53;;
10442;SDS011;5269;51.146;16.986;2023-02-28T05:25:20;27.57;;;14.00;;
10442;SDS011;5269;51.146;16.986;2023-02-28T05:27:47;23.77;;;14.20;;
10442;SDS011;5269;51.146;16.986;2023-02-28T05:30:15;25.03;;;14.47;;
10442;SDS011;5269;51.146;16.986;2023-02-28T05:32:43;22.37;;;13.93;;
10442;SDS011;5269;51.146;16.986;2023-02-28T05:35:15;22.20;;;13.80;;
10442;SDS011;5269;51.146;16.986;2023-02-28T05:37:43;21.23;;;14.10;;
10442;SDS011;5269;51.146;16.986;2023-02-28T05:40:10;23.73;;;13.67;;
10442;SDS011;5269;51.146;16.986;2023-02-28T05:42:37;21.17;;;13.30;;
10442;SDS011;5269;51.146;16.986;2023-02-28T05:45:05;20.90;;;14.40;;
10442;SDS011;5269;51.146;16.986;2023-02-28T05:47:39;22.23;;;13.87;;
10442;SDS011;5269;51.146;16.986;2023-02-28T05:50:08;23.05;;;13.95;;
10442;SDS011;5269;51.146;16.986;2023-02-28T05:52:37;22.17;;;13.53;;
10442;SDS011;5269;51.146;16.986;2023-02-28T05:55:04;24.60;;;14.87;;
10442;SDS011;5269;51.146;16.986;2023-02-28T05:57:39;29.27;;;17.73;;
10442;SDS011;5269;51.146;16.986;2023-02-28T06:00:06;26.13;;;15.67;;
10442;SDS011;5269;51.146;16.986;2023-02-28T06:05:28;27.13;;;16.00;;
10442;SDS011;5269;51.146;16.986;2023-02-28T06:07:54;28.83;;;16.63;;
10442;SDS011;5269;51.146;16.986;2023-02-28T06:10:21;23.23;;;14.63;;
10442;SDS011;5269;51.146;16.986;2023-02-28T06:12:50;22.20;;;13.67;;
10442;SDS011;5269;51.146;16.986;2023-02-28T06:15:17;21.00;;;13.13;;
10442;SDS011;5269;51.146;16.986;2023-02-28T06:17:45;22.48;;;13.88;;
10442;SDS011;5269;51.146;16.986;2023-02-28T06:20:13;24.17;;;15.07;;
10442;SDS011;5269;51.146;16.986;2023-02-28T06:22:41;23.23;;;14.25;;
10442;SDS011;5269;51.146;16.986;2023-02-28T06:25:08;22.27;;;13.50;;
10442;SDS011;5269;51.146;16.986;2023-02-28T06:27:36;22.37;;;12.80;;
10442;SDS011;5269;51.146;16.986;2023-02-28T06:30:03;20.25;;;12.60;;
10442;SDS011;5269;51.146;16.986;2023-02-28T06:32:31;18.53;;;11.70;;
10442;SDS011;5269;51.146;16.986;2023-02-28T06:34:57;21.45;;;12.13;;
10442;SDS011;5269;51.146;16.986;2023-02-28T06:37:24;17.65;;;11.93;;
10442;SDS011;5269;51.146;16.986;2023-02-28T06:39:53;20.83;;;12.13;;
10442;SDS011;5269;51.146;16.986;2023-02-28T06:42:21;17.90;;;11.57;;
10442;SDS011;5269;51.146;16.986;2023-02-28T06:44:49;19.43;;;11.53;;
10442;SDS011;5269;51.146;16.986;2023-02-28T06:47:16;21.93;;;12.97;;
10442;SDS011;5269;51.146;16.986;2023-02-28T06:49:43;19.73;;;12.70;;
10442;SDS011;5269;51.146;16.986;2023-02-28T06:52:10;17.10;;;12.20;;
10442;SDS011;5269;51.146;16.986;2023-02-28T06:54:37;17.87;;;10.80;;
10442;SDS011;5269;51.146;16.986;2023-02-28T06:57:05;20.50;;;11.47;;
10442;SDS011;5269;51.146;16.986;2023-02-28T06:59:32;17.03;;;10.87;;
10442;SDS011;5269;51.146;16.986;2023-02-28T07:02:00;20.90;;;11.20;;
10442;SDS011;5269;51.146;16.986;2023-02-28T07:04:27;17.03;;;11.93;;
10442;SDS011;5269;51.146;16.986;2023-02-28T07:06:54;17.60;;;11.80;;
10442;SDS011;5269;51.146;16.986;2023-02-28T07:09:22;18.53;;;10.90;;
10442;SDS011;5269;51.146;16.986;2023-02-28T07:11:49;20.50;;;11.65;;
10442;SDS011;5269;51.146;16.986;2023-02-28T07:14:17;18.83;;;11.30;;
10442;SDS011;5269;51.146;16.986;2023-02-28T07:16:44;15.77;;;11.07;;
10442;SDS011;5269;51.146;16.986;2023-02-28T07:19:10;16.37;;;11.50;;
10442;SDS011;5269;51.146;16.986;2023-02-28T07:21:37;15.23;;;11.10;;
10442;SDS011;5269;51.146;16.986;2023-02-28T07:24:04;19.83;;;12.20;;
10442;SDS011;5269;51.146;16.986;2023-02-28T07:26:32;18.87;;;11.47;;
10442;SDS011;5269;51.146;16.986;2023-02-28T07:29:00;18.27;;;10.80;;
10442;SDS011;5269;51.146;16.986;2023-02-28T07:31:29;18.63;;;11.23;;
10442;SDS011;5269;51.146;16.986;2023-02-28T07:33:56;15.43;;;10.10;;
10442;SDS011;5269;51.146;16.986;2023-02-28T07:36:23;15.25;;;11.30;;
10442;SDS011;5269;51.146;16.986;2023-02-28T07:38:50;14.05;;;9.77;;
10442;SDS011;5269;51.146;16.986;2023-02-28T07:41:19;12.43;;;8.90;;
10442;SDS011;5269;51.146;16.986;2023-02-28T07:43:48;11.73;;;8.77;;
10442;SDS011;5269;51.146;16.986;2023-02-28T07:46:31;12.10;;;7.93;;
10442;SDS011;5269;51.146;16.986;2023-02-28T07:49:00;10.55;;;6.63;;
10442;SDS011;5269;51.146;16.986;2023-02-28T07:51:28;9.70;;;6.72;;
10442;SDS011;5269;51.146;16.986;2023-02-28T07:53:55;9.18;;;6.70;;
10442;SDS011;5269;51.146;16.986;2023-02-28T07:56:21;8.93;;;6.57;;
10442;SDS011;5269;51.146;16.986;2023-02-28T07:58:48;9.40;;;7.00;;
10442;SDS011;5269;51.146;16.986;2023-02-28T08:01:16;7.57;;;6.57;;
10442;SDS011;5269;51.146;16.986;2023-02-28T08:03:45;10.18;;;6.60;;
10442;SDS011;5269;51.146;16.986;2023-02-28T08:06:15;7.35;;;6.28;;
10442;SDS011;5269;51.146;16.986;2023-02-28T08:08:43;9.33;;;5.57;;
10442;SDS011;5269;51.146;16.986;2023-02-28T08:11:10;7.63;;;6.10;;
10442;SDS011;5269;51.146;16.986;2023-02-28T08:13:37;10.50;;;5.77;;
10442;SDS011;5269;51.146;16.986;2023-02-28T08:16:04;8.60;;;6.07;;
10442;SDS011;5269;51.146;16.986;2023-02-28T08:18:32;9.00;;;6.13;;
10442;SDS011;5269;51.146;16.986;2023-02-28T08:21:04;8.07;;;6.50;;
10442;SDS011;5269;51.146;16.986;2023-02-28T08:23:32;9.03;;;6.47;;
10442;SDS011;5269;51.146;16.986;2023-02-28T08:26:00;8.18;;;6.93;;
10442;SDS011;5269;51.146;16.986;2023-02-28T08:28:26;9.57;;;6.40;;
10442;SDS011;5269;51.146;16.986;2023-02-28T08:30:54;8.15;;;6.00;;
10442;SDS011;5269;51.146;16.986;2023-02-28T08:33:21;11.38;;;5.80;;
10442;SDS011;5269;51.146;16.986;2023-02-28T08:35:51;6.90;;;5.85;;
10442;SDS011;5269;51.146;16.986;2023-02-28T08:38:20;11.85;;;5.80;;
10442;SDS011;5269;51.146;16.986;2023-02-28T08:40:47;6.40;;;5.75;;
10442;SDS011;5269;51.146;16.986;2023-02-28T08:43:14;9.00;;;5.70;;
10442;SDS011;5269;51.146;16.986;2023-02-28T08:45:41;8.50;;;6.37;;
10442;SDS011;5269;51.146;16.986;2023-02-28T08:48:08;8.53;;;6.07;;
10442;SDS011;5269;51.146;16.986;2023-02-28T08:50:35;9.65;;;6.25;;
10442;SDS011;5269;51.146;16.986;2023-02-28T08:53:02;8.00;;;5.70;;
10442;SDS011;5269;51.146;16.986;2023-02-28T08:55:30;7.60;;;5.65;;
10442;SDS011;5269;51.146;16.986;2023-02-28T08:57:57;9.85;;;5.70;;
10442;SDS011;5269;51.146;16.986;2023-02-28T09:00:24;6.80;;;5.27;;
10442;SDS011;5269;51.146;16.986;2023-02-28T09:02:51;7.47;;;5.67;;
10442;SDS011;5269;51.146;16.986;2023-02-28T09:05:18;6.13;;;4.90;;
10442;SDS011;5269;51.146;16.986;2023-02-28T09:07:48;8.68;;;5.32;;
10442;SDS011;5269;51.146;16.986;2023-02-28T09:10:16;4.30;;;3.90;;
10442;SDS011;5269;51.146;16.986;2023-02-28T09:12:44;3.58;;;3.28;;
10442;SDS011;5269;51.146;16.986;2023-02-28T09:15:12;3.97;;;3.55;;
10442;SDS011;5269;51.146;16.986;2023-02-28T09:17:39;4.75;;;3.80;;
10442;SDS011;5269;51.146;16.986;2023-02-28T09:20:06;4.50;;;3.72;;
10442;SDS011;5269;51.146;16.986;2023-02-28T09:22:34;4.05;;;3.65;;
10442;SDS011;5269;51.146;16.986;2023-02-28T09:25:01;6.32;;;4.78;;
10442;SDS011;5269;51.146;16.986;2023-02-28T09:27:28;6.47;;;4.53;;
10442;SDS011;5269;51.146;16.986;2023-02-28T09:29:56;4.00;;;3.60;;
10442;SDS011;5269;51.146;16.986;2023-02-28T09:32:23;5.47;;;4.13;;
10442;SDS011;5269;51.146;16.986;2023-02-28T09:34:50;3.90;;;3.33;;
10442;SDS011;5269;51.146;16.986;2023-02-28T09:37:16;7.47;;;3.90;;
10442;SDS011;5269;51.146;16.986;2023-02-28T09:39:43;5.95;;;4.82;;
10442;SDS011;5269;51.146;16.986;2023-02-28T09:42:12;5.53;;;4.47;;
10442;SDS011;5269;51.146;16.986;2023-02-28T09:44:47;5.28;;;4.32;;
10442;SDS011;5269;51.146;16.986;2023-02-28T09:47:18;4.95;;;4.30;;
10442;SDS011;5269;51.146;16.986;2023-02-28T09:49:53;6.13;;;4.13;;
10442;SDS011;5269;51.146;16.986;2023-02-28T09:52:24;5.78;;;4.30;;
10442;SDS011;5269;51.146;16.986;2023-02-28T09:54:55;7.97;;;4.47;;
10442;SDS011;5269;51.146;16.986;2023-02-28T09:57:27;5.53;;;4.45;;
10442;SDS011;5269;51.146;16.986;2023-02-28T10:00:02;8.90;;;4.47;;
10442;SDS011;5269;51.146;16.986;2023-02-28T10:02:46;5.57;;;4.70;;
10442;SDS011;5269;51.146;16.986;2023-02-28T10:05:24;6.82;;;4.80;;
10442;SDS011;5269;51.146;16.986;2023-02-28T10:07:57;6.70;;;4.68;;
10442;SDS011;5269;51.146;16.986;2023-02-28T10:10:34;6.75;;;4.28;;
10442;SDS011;5269;51.146;16.986;2023-02-28T10:13:06;9.65;;;5.97;;
10442;SDS011;5269;51.146;16.986;2023-02-28T10:15:41;5.78;;;4.40;;
10442;SDS011;5269;51.146;16.986;2023-02-28T10:18:12;6.05;;;4.80;;
10442;SDS011;5269;51.146;16.986;2023-02-28T10:20:46;7.20;;;5.40;;
10442;SDS011;5269;51.146;16.986;2023-02-28T10:23:17;12.27;;;6.25;;
10442;SDS011;5269;51.146;16.986;2023-02-28T10:25:50;8.15;;;6.18;;
10442;SDS011;5269;51.146;16.986;2023-02-28T10:28:21;8.50;;;5.78;;
10442;SDS011;5269;51.146;16.986;2023-02-28T10:30:48;6.68;;;5.65;;
10442;SDS011;5269;51.146;16.986;2023-02-28T10:33:19;8.18;;;6.43;;
10442;SDS011;5269;51.146;16.986;2023-02-28T10:35:49;6.88;;;5.47;;
10442;SDS011;5269;51.146;16.986;2023-02-28T10:38:17;6.50;;;5.03;;
10442;SDS011;5269;51.146;16.986;2023-02-28T10:40:45;7.78;;;4.85;;
10442;SDS011;5269;51.146;16.986;2023-02-28T10:43:18;5.75;;;4.70;;
10442;SDS011;5269;51.146;16.986;2023-02-28T10:45:57;8.63;;;5.20;;
10442;SDS011;5269;51.146;16.986;2023-02-28T10:48:32;6.97;;;5.10;;
10442;SDS011;5269;51.146;16.986;2023-02-28T10:51:02;7.43;;;4.93;;
10442;SDS011;5269;51.146;16.986;2023-02-28T10:53:32;9.75;;;7.03;;
10442;SDS011;5269;51.146;16.986;2023-02-28T10:56:02;8.18;;;6.40;;
10442;SDS011;5269;51.146;16.986;2023-02-28T10:58:33;6.43;;;5.18;;
10442;SDS011;5269;51.146;16.986;2023-02-28T11:01:14;6.32;;;5.35;;
10442;SDS011;5269;51.146;16.986;2023-02-28T11:03:43;7.95;;;5.28;;
10442;SDS011;5269;51.146;16.986;2023-02-28T11:06:13;9.15;;;5.32;;
10442;SDS011;5269;51.146;16.986;2023-02-28T11:08:44;6.43;;;4.85;;
10442;SDS011;5269;51.146;16.986;2023-02-28T11:11:12;6.85;;;4.60;;
10442;SDS011;5269;51.146;16.986;2023-02-28T11:13:42;7.63;;;5.70;;
10442;SDS011;5269;51.146;16.986;2023-02-28T11:16:11;8.05;;;4.85;;
10442;SDS011;5269;51.146;16.986;2023-02-28T11:18:40;6.82;;;4.90;;
10442;SDS011;5269;51.146;16.986;2023-02-28T11:21:15;9.75;;;6.03;;
10442;SDS011;5269;51.146;16.986;2023-02-28T11:23:45;7.68;;;5.70;;
10442;SDS011;5269;51.146;16.986;2023-02-28T11:26:13;7.43;;;5.40;;
10442;SDS011;5269;51.146;16.986;2023-02-28T11:28:41;6.65;;;5.22;;
10442;SDS011;5269;51.146;16.986;2023-02-28T11:31:15;6.85;;;5.03;;
10442;SDS011;5269;51.146;16.986;2023-02-28T11:33:46;6.75;;;4.78;;
10442;SDS011;5269;51.146;16.986;2023-02-28T11:36:16;7.43;;;5.45;;
10442;SDS011;5269;51.146;16.986;2023-02-28T11:38:45;8.23;;;5.57;;
10442;SDS011;5269;51.146;16.986;2023-02-28T11:41:17;6.82;;;5.40;;
10442;SDS011;5269;51.146;16.986;2023-02-28T11:43:55;14.27;;;7.57;;
10442;SDS011;5269;51.146;16.986;2023-02-28T11:46:35;8.40;;;5.60;;
10442;SDS011;5269;51.146;16.986;2023-02-28T11:49:13;6.75;;;5.25;;
10442;SDS011;5269;51.146;16.986;2023-02-28T11:51:48;6.97;;;5.47;;
10442;SDS011;5269;51.146;16.986;2023-02-28T11:54:24;7.72;;;5.40;;
10442;SDS011;5269;51.146;16.986;2023-02-28T11:57:12;10.10;;;6.57;;
10442;SDS011;5269;51.146;16.986;2023-02-28T11:59:52;9.35;;;5.07;;
10442;SDS011;5269;51.146;16.986;2023-02-28T12:02:26;9.02;;;6.50;;
10442;SDS011;5269;51.146;16.986;2023-02-28T12:05:04;7.45;;;6.22;;
10442;SDS011;5269;51.146;16.986;2023-02-28T12:07:39;8.15;;;6.18;;
10442;SDS011;5269;51.146;16.986;2023-02-28T12:10:18;9.52;;;6.20;;
10442;SDS011;5269;51.146;16.986;2023-02-28T12:12:50;9.15;;;6.25;;
10442;SDS011;5269;51.146;16.986;2023-02-28T12:15:37;10.27;;;6.78;;
10442;SDS011;5269;51.146;16.986;2023-02-28T12:18:28;9.65;;;6.70;;
10442;SDS011;5269;51.146;16.986;2023-02-28T12:21:08;8.38;;;6.53;;
10442;SDS011;5269;51.146;16.986;2023-02-28T12:23:47;9.13;;;6.03;;
10442;SDS011;5269;51.146;16.986;2023-02-28T12:26:28;9.82;;;6.95;;
10442;SDS011;5269;51.146;16.986;2023-02-28T12:29:04;9.80;;;6.20;;
10442;SDS011;5269;51.146;16.986;2023-02-28T12:31:40;9.32;;;6.38;;
10442;SDS011;5269;51.146;16.986;2023-02-28T12:34:12;8.73;;;5.65;;
10442;SDS011;5269;51.146;16.986;2023-02-28T12:36:43;9.38;;;6.57;;
10442;SDS011;5269;51.146;16.986;2023-02-28T12:39:15;9.50;;;6.75;;
10442;SDS011;5269;51.146;16.986;2023-02-28T12:41:46;9.63;;;6.55;;
10442;SDS011;5269;51.146;16.986;2023-02-28T12:44:17;9.55;;;6.72;;
10442;SDS011;5269;51.146;16.986;2023-02-28T12:46:50;8.95;;;6.07;;
10442;SDS011;5269;51.146;16.986;2023-02-28T12:49:19;9.65;;;6.05;;
10442;SDS011;5269;51.146;16.986;2023-02-28T12:51:53;7.63;;;5.68;;
10442;SDS011;5269;51.146;16.986;2023-02-28T12:54:22;9.50;;;6.20;;
10442;SDS011;5269;51.146;16.986;2023-02-28T12:56:57;8.30;;;6.32;;
10442;SDS011;5269;51.146;16.986;2023-02-28T12:59:34;8.10;;;6.20;;
10442;SDS011;5269;51.146;16.986;2023-02-28T13:05:19;10.88;;;6.35;;
10442;SDS011;5269;51.146;16.986;2023-02-28T13:10:59;8.95;;;6.05;;
10442;SDS011;5269;51.146;16.986;2023-02-28T13:13:26;7.95;;;5.70;;
10442;SDS011;5269;51.146;16.986;2023-02-28T13:16:03;7.32;;;5.50;;
10442;SDS011;5269;51.146;16.986;2023-02-28T13:18:32;9.10;;;6.00;;
10442;SDS011;5269;51.146;16.986;2023-02-28T13:21:02;7.60;;;5.43;;
10442;SDS011;5269;51.146;16.986;2023-02-28T13:23:40;7.00;;;5.15;;
10442;SDS011;5269;51.146;16.986;2023-02-28T13:29:31;9.13;;;6.50;;
10442;SDS011;5269;51.146;16.986;2023-02-28T13:35:14;6.00;;;5.22;;
10442;SDS011;5269;51.146;16.986;2023-02-28T13:38:17;8.55;;;5.47;;
10442;SDS011;5269;51.146;16.986;2023-02-28T13:44:08;9.35;;;6.40;;
10442;SDS011;5269;51.146;16.986;2023-02-28T13:46:38;7.57;;;5.93;;
10442;SDS011;5269;51.146;16.986;2023-02-28T13:49:47;7.93;;;5.78;;
10442;SDS011;5269;51.146;16.986;2023-02-28T13:52:17;7.50;;;5.50;;
10442;SDS011;5269;51.146;16.986;2023-02-28T13:54:53;10.02;;;5.90;;
10442;SDS011;5269;51.146;16.986;2023-02-28T13:57:30;7.70;;;5.47;;
10442;SDS011;5269;51.146;16.986;2023-02-28T14:00:15;9.65;;;6.43;;
10442;SDS011;5269;51.146;16.986;2023-02-28T14:02:54;8.23;;;6.03;;
10442;SDS011;5269;51.146;16.986;2023-02-28T14:05:37;9.30;;;5.90;;
10442;SDS011;5269;51.146;16.986;2023-02-28T14:08:04;15.88;;;9.30;;
10442;SDS011;5269;51.146;16.986;2023-02-28T14:10:42;12.32;;;8.25;;
10442;SDS011;5269;51.146;16.986;2023-02-28T14:13:36;10.68;;;7.03;;
10442;SDS011;5269;51.146;16.986;2023-02-28T14:16:09;12.95;;;6.38;;
10442;SDS011;5269;51.146;16.986;2023-02-28T14:18:40;8.70;;;6.00;;
10442;SDS011;5269;51.146;16.986;2023-02-28T14:21:21;14.30;;;9.48;;
10442;SDS011;5269;51.146;16.986;2023-02-28T14:24:01;11.00;;;7.50;;
10442;SDS011;5269;51.146;16.986;2023-02-28T14:26:56;9.02;;;6.45;;
10442;SDS011;5269;51.146;16.986;2023-02-28T14:29:47;17.10;;;9.80;;
10442;SDS011;5269;51.146;16.986;2023-02-28T14:32:41;15.60;;;10.63;;
10442;SDS011;5269;51.146;16.986;2023-02-28T14:35:17;12.95;;;9.30;;
10442;SDS011;5269;51.146;16.986;2023-02-28T14:37:53;15.07;;;10.30;;
10442;SDS011;5269;51.146;16.986;2023-02-28T14:40:21;9.88;;;6.90;;
10442;SDS011;5269;51.146;16.986;2023-02-28T14:42:54;16.17;;;9.27;;
10442;SDS011;5269;51.146;16.986;2023-02-28T14:45:23;8.75;;;6.90;;
10442;SDS011;5269;51.146;16.986;2023-02-28T14:47:51;10.80;;;6.35;;
10442;SDS011;5269;51.146;16.986;2023-02-28T14:50:18;9.88;;;7.53;;
10442;SDS011;5269;51.146;16.986;2023-02-28T14:52:47;10.18;;;6.57;;
10442;SDS011;5269;51.146;16.986;2023-02-28T14:55:18;8.90;;;6.10;;
10442;SDS011;5269;51.146;16.986;2023-02-28T14:57:52;12.23;;;8.13;;
10442;SDS011;5269;51.146;16.986;2023-02-28T15:00:21;13.32;;;8.60;;
10442;SDS011;5269;51.146;16.986;2023-02-28T15:02:52;10.45;;;7.43;;
10442;SDS011;5269;51.146;16.986;2023-02-28T15:05:24;9.60;;;6.88;;
10442;SDS011;5269;51.146;16.986;2023-02-28T15:08:04;10.32;;;7.38;;
10442;SDS011;5269;51.146;16.986;2023-02-28T15:10:36;10.25;;;6.57;;
10442;SDS011;5269;51.146;16.986;2023-02-28T15:13:05;10.18;;;6.50;;
10442;SDS011;5269;51.146;16.986;2023-02-28T15:15:41;10.98;;;6.68;;
10442;SDS011;5269;51.146;16.986;2023-02-28T15:18:14;9.77;;;6.53;;
10442;SDS011;5269;51.146;16.986;2023-02-28T15:20:47;10.07;;;6.88;;
10442;SDS011;5269;51.146;16.986;2023-02-28T15:23:15;7.40;;;5.80;;
10442;SDS011;5269;51.146;16.986;2023-02-28T15:25:44;7.60;;;5.65;;
10442;SDS011;5269;51.146;16.986;2023-02-28T15:28:13;8.32;;;6.30;;
10442;SDS011;5269;51.146;16.986;2023-02-28T15:30:51;6.93;;;5.40;;
10442;SDS011;5269;51.146;16.986;2023-02-28T15:33:20;7.38;;;5.35;;
10442;SDS011;5269;51.146;16.986;2023-02-28T15:38:44;8.45;;;5.82;;
10442;SDS011;5269;51.146;16.986;2023-02-28T15:41:24;8.77;;;5.53;;
10442;SDS011;5269;51.146;16.986;2023-02-28T15:46:53;13.13;;;5.70;;
10442;SDS011;5269;51.146;16.986;2023-02-28T15:49:23;7.40;;;5.30;;